Time;durP1;ratioP1;P1;durP2;ratioP2;P2;SDS_P1;SDS_P2;PMS_P1;PMS_P2;Temp;Humidity;BMP_temperature;BMP_pressure;BME280_temperature;BME280_humidity;BME280_pressure;Samples;Min_cycle;Max_cycle;Signal;HPM_P1;HPM_P2
2023/03/06 00:00:37;;;;;;;12.53;11.20;;;4.30;75.00;;;;;;5099372;28;20171;-82
2023/03/06 00:03:03;;;;;;;12.20;10.37;;;4.20;75.70;;;;;;5096734;28;20498;-82
2023/03/06 00:05:29;;;;;;;11.27;10.17;;;4.30;74.20;;;;;;5099601;28;20175;-81
2023/03/06 00:07:55;;;;;;;13.23;10.73;;;4.40;74.50;;;;;;5100316;28;20190;-81
2023/03/06 00:10:23;;;;;;;12.13;10.87;;;4.50;73.30;;;;;;5102099;28;20210;-82
2023/03/06 00:12:58;;;;;;;14.57;10.63;;;4.50;73.70;;;;;;5100246;28;20194;-85
2023/03/06 00:15:25;;;;;;;14.53;11.90;;;4.50;74.00;;;;;;5099950;28;20202;-83
2023/03/06 00:17:51;;;;;;;11.97;10.80;;;4.50;73.80;;;;;;5098296;28;20186;-81
2023/03/06 00:20:18;;;;;;;13.57;11.70;;;4.40;74.00;;;;;;5099890;28;20220;-81
2023/03/06 00:22:43;;;;;;;13.67;12.30;;;4.30;74.30;;;;;;5104792;28;20179;-83
2023/03/06 00:25:15;;;;;;;13.57;12.17;;;4.20;75.00;;;;;;5101391;28;20409;-82
2023/03/06 00:27:41;;;;;;;15.43;12.37;;;4.20;75.40;;;;;;5100861;28;20179;-82
2023/03/06 00:30:07;;;;;;;13.73;12.33;;;4.10;76.00;;;;;;5099086;28;20217;-81
2023/03/06 00:32:33;;;;;;;14.27;12.30;;;4.20;75.70;;;;;;5102262;28;20250;-82
2023/03/06 00:34:58;;;;;;;14.43;12.93;;;4.20;75.80;;;;;;5102380;28;20175;-83
2023/03/06 00:37:24;;;;;;;13.57;12.17;;;4.30;75.20;;;;;;5106873;28;20170;-83
2023/03/06 00:39:50;;;;;;;16.17;12.87;;;4.20;75.80;;;;;;5116478;28;20159;-83
2023/03/06 00:42:17;;;;;;;14.33;11.90;;;4.20;76.00;;;;;;5117665;28;20220;-83
2023/03/06 00:44:43;;;;;;;14.67;12.43;;;4.10;76.20;;;;;;5112007;28;20222;-81
2023/03/06 00:47:10;;;;;;;14.53;13.03;;;4.00;76.50;;;;;;5102399;28;20171;-80
2023/03/06 00:49:35;;;;;;;16.30;13.63;;;3.90;77.30;;;;;;5102801;28;20174;-82
2023/03/06 00:52:01;;;;;;;15.27;13.70;;;3.80;77.90;;;;;;5101566;28;20215;-81
2023/03/06 00:54:26;;;;;;;14.60;11.70;;;3.90;77.70;;;;;;5101267;28;20175;-84
2023/03/06 00:56:52;;;;;;;16.80;13.37;;;4.00;77.70;;;;;;5102517;28;20179;-82
2023/03/06 00:59:18;;;;;;;15.33;13.77;;;3.80;77.70;;;;;;5102765;28;20175;-82
2023/03/06 01:01:43;;;;;;;15.13;12.40;;;3.80;77.90;;;;;;5101191;28;20274;-81
2023/03/06 01:04:09;;;;;;;14.90;13.23;;;3.90;77.30;;;;;;5105178;28;20178;-82
2023/03/06 01:06:35;;;;;;;15.00;12.97;;;3.90;77.40;;;;;;5102981;28;20187;-81
2023/03/06 01:09:00;;;;;;;15.83;12.53;;;3.90;77.50;;;;;;5100784;28;20209;-82
2023/03/06 01:11:26;;;;;;;14.27;12.00;;;3.80;79.00;;;;;;5099155;28;20221;-81
2023/03/06 01:13:52;;;;;;;16.73;12.60;;;3.80;79.00;;;;;;5098177;28;20175;-82
2023/03/06 01:16:20;;;;;;;13.80;12.30;;;3.90;77.90;;;;;;5098961;28;20179;-84
2023/03/06 01:18:45;;;;;;;14.20;12.50;;;4.10;76.70;;;;;;5099869;28;20236;-83
2023/03/06 01:21:11;;;;;;;16.03;13.23;;;3.90;77.00;;;;;;5099215;28;20723;-84
2023/03/06 01:23:37;;;;;;;15.67;12.73;;;3.80;77.90;;;;;;5099012;28;20233;-83
2023/03/06 01:26:04;;;;;;;14.27;12.33;;;3.80;79.10;;;;;;5100917;28;20204;-81
2023/03/06 01:28:29;;;;;;;14.00;12.23;;;3.70;79.00;;;;;;5100870;28;20178;-82
2023/03/06 01:30:55;;;;;;;15.80;12.13;;;3.70;79.40;;;;;;5098175;28;20217;-82
2023/03/06 01:33:21;;;;;;;14.40;12.50;;;3.70;79.50;;;;;;5101527;28;20179;-82
2023/03/06 01:35:47;;;;;;;13.83;12.43;;;3.60;79.80;;;;;;5099830;28;20341;-82
2023/03/06 01:38:13;;;;;;;16.80;12.97;;;3.60;80.00;;;;;;5100201;28;20175;-82
2023/03/06 01:40:38;;;;;;;14.00;12.53;;;3.60;79.70;;;;;;5099875;28;20190;-82
2023/03/06 01:43:25;;;;;;;14.00;12.43;;;3.60;80.60;;;;;;5099200;28;20240;-83
2023/03/06 01:45:51;;;;;;;17.13;13.13;;;3.50;80.90;;;;;;5096332;28;20182;-81
2023/03/06 01:48:22;;;;;;;15.93;12.43;;;3.50;81.40;;;;;;5099887;28;20197;-83
2023/03/06 01:50:51;;;;;;;16.33;13.53;;;3.50;81.60;;;;;;5100179;28;20608;-82
2023/03/06 01:53:18;;;;;;;18.07;14.27;;;3.50;81.90;;;;;;5099537;28;20171;-81
2023/03/06 01:55:44;;;;;;;19.07;14.27;;;3.50;82.20;;;;;;5099675;28;20182;-81
2023/03/06 01:58:15;;;;;;;18.33;15.17;;;3.50;82.80;;;;;;5098887;28;20171;-80
2023/03/06 02:00:40;;;;;;;15.73;13.93;;;3.40;83.50;;;;;;5099139;28;20345;-82
2023/03/06 02:03:08;;;;;;;17.07;13.70;;;3.40;83.50;;;;;;5099005;28;20236;-83
2023/03/06 02:05:35;;;;;;;18.53;14.33;;;3.50;83.40;;;;;;5097185;28;20171;-81
2023/03/06 02:08:02;;;;;;;17.57;14.83;;;3.50;83.40;;;;;;5096942;28;20213;-81
2023/03/06 02:10:28;;;;;;;20.10;14.10;;;3.60;82.70;;;;;;5096334;28;20219;-83
2023/03/06 02:12:54;;;;;;;17.17;13.00;;;3.50;83.40;;;;;;5095016;28;20178;-83
2023/03/06 02:15:23;;;;;;;16.43;13.97;;;3.50;83.70;;;;;;5096355;28;20175;-85
2023/03/06 02:17:51;;;;;;;16.50;14.00;;;3.40;83.90;;;;;;5095915;28;20182;-84
2023/03/06 02:20:32;;;;;;;16.47;13.37;;;3.50;84.10;;;;;;5096397;28;20337;-82
2023/03/06 02:23:28;;;;;;;16.60;13.70;;;3.50;84.10;;;;;;5097346;28;20186;-82
2023/03/06 02:25:55;;;;;;;14.40;12.90;;;3.50;84.50;;;;;;5083908;28;20279;-81
2023/03/06 02:28:23;;;;;;;18.00;14.53;;;3.40;85.10;;;;;;5078921;28;20179;-83
2023/03/06 02:30:51;;;;;;;17.90;13.70;;;3.50;84.60;;;;;;5078319;28;20223;-83
2023/03/06 02:33:20;;;;;;;15.70;13.10;;;3.50;84.20;;;;;;5079614;28;20179;-83
2023/03/06 02:35:58;;;;;;;15.57;12.93;;;3.50;84.90;;;;;;5079408;28;20179;-83
2023/03/06 02:38:28;;;;;;;17.23;14.60;;;3.60;83.90;;;;;;5080264;28;20175;-80
2023/03/06 02:40:56;;;;;;;16.23;13.57;;;3.60;83.70;;;;;;5079680;28;20195;-83
2023/03/06 02:43:27;;;;;;;17.50;14.63;;;3.70;83.30;;;;;;5079029;28;20184;-82
2023/03/06 02:45:53;;;;;;;18.40;14.60;;;3.60;83.80;;;;;;5077441;28;20251;-83
2023/03/06 02:48:19;;;;;;;19.20;13.13;;;3.60;84.20;;;;;;5078673;28;20179;-82
2023/03/06 02:50:46;;;;;;;17.27;13.47;;;3.70;83.80;;;;;;5078015;28;20219;-79
2023/03/06 02:53:15;;;;;;;16.30;14.13;;;3.80;82.40;;;;;;5077537;28;20190;-82
2023/03/06 02:55:41;;;;;;;15.47;13.63;;;3.90;81.50;;;;;;5077843;28;20188;-82
2023/03/06 02:58:08;;;;;;;18.63;14.20;;;3.80;82.40;;;;;;5078723;28;20179;-81
2023/03/06 03:00:33;;;;;;;17.83;14.27;;;3.90;81.80;;;;;;5077559;28;20203;-82
2023/03/06 03:02:59;;;;;;;16.43;14.20;;;3.80;82.70;;;;;;5076734;28;20659;-83
2023/03/06 03:05:25;;;;;;;16.47;14.07;;;3.70;83.60;;;;;;5076274;28;20175;-83
2023/03/06 03:07:51;;;;;;;16.03;13.40;;;3.70;83.50;;;;;;5075760;28;20553;-82
2023/03/06 03:10:17;;;;;;;15.27;13.63;;;3.70;83.40;;;;;;5085476;28;20218;-84
2023/03/06 03:12:42;;;;;;;16.27;13.60;;;3.70;83.20;;;;;;5095447;28;20179;-81
2023/03/06 03:15:09;;;;;;;19.50;15.30;;;3.70;83.60;;;;;;5097264;28;20243;-83
2023/03/06 03:17:39;;;;;;;16.50;14.07;;;3.70;83.90;;;;;;5097893;28;20183;-83
2023/03/06 03:20:07;;;;;;;16.47;13.40;;;3.90;83.00;;;;;;5095223;28;20332;-83
2023/03/06 03:22:33;;;;;;;17.97;13.70;;;4.00;81.90;;;;;;5112564;28;20194;-82
2023/03/06 03:24:58;;;;;;;18.93;14.03;;;4.10;81.50;;;;;;5094633;28;20183;-82
2023/03/06 03:27:24;;;;;;;18.00;14.77;;;4.10;81.60;;;;;;5094585;28;20175;-80
2023/03/06 03:29:50;;;;;;;15.97;13.77;;;4.10;81.90;;;;;;5094907;28;20209;-81
2023/03/06 03:32:15;;;;;;;17.80;15.20;;;4.10;82.00;;;;;;5094767;28;20708;-81
2023/03/06 03:34:41;;;;;;;19.97;15.77;;;4.00;82.10;;;;;;5095521;28;20261;-81
2023/03/06 03:37:07;;;;;;;19.33;16.10;;;3.80;83.60;;;;;;5094903;28;20167;-82
2023/03/06 03:39:32;;;;;;;18.40;15.70;;;3.60;85.10;;;;;;5094923;28;20179;-83
2023/03/06 03:41:59;;;;;;;19.97;16.13;;;3.60;86.30;;;;;;5096901;28;20260;-82
2023/03/06 03:44:24;;;;;;;19.67;15.73;;;3.60;85.80;;;;;;5099354;28;20238;-82
2023/03/06 03:46:50;;;;;;;20.03;16.97;;;3.60;86.70;;;;;;5101844;28;20215;-85
2023/03/06 03:49:16;;;;;;;18.20;15.90;;;3.50;86.80;;;;;;5102228;28;20205;-83
2023/03/06 03:51:41;;;;;;;22.50;16.33;;;3.60;87.00;;;;;;5102342;28;20233;-82
2023/03/06 03:54:07;;;;;;;18.93;15.67;;;3.70;85.40;;;;;;5100922;28;20286;-83
2023/03/06 03:56:33;;;;;;;17.60;14.77;;;3.70;85.00;;;;;;5100841;28;20175;-82
2023/03/06 03:58:59;;;;;;;18.80;16.03;;;3.60;86.10;;;;;;5097872;28;20194;-82
2023/03/06 04:01:24;;;;;;;19.63;16.63;;;3.50;86.20;;;;;;5096405;28;20195;-82
2023/03/06 04:03:50;;;;;;;21.70;16.80;;;3.60;85.70;;;;;;5097379;28;20210;-83
2023/03/06 04:06:16;;;;;;;20.30;16.17;;;3.60;85.30;;;;;;5097918;28;20167;-81
2023/03/06 04:08:42;;;;;;;24.97;17.90;;;3.50;86.40;;;;;;5097901;28;20171;-82
2023/03/06 04:11:08;;;;;;;22.70;16.57;;;3.40;87.50;;;;;;5078667;28;20231;-82
2023/03/06 04:13:34;;;;;;;21.60;17.37;;;3.40;87.80;;;;;;5078308;28;20206;-82
2023/03/06 04:15:59;;;;;;;24.37;17.53;;;3.40;88.60;;;;;;5096023;28;20600;-83
2023/03/06 04:18:25;;;;;;;21.33;17.00;;;3.30;89.80;;;;;;5099579;28;20182;-82
2023/03/06 04:20:51;;;;;;;18.70;16.10;;;3.20;90.50;;;;;;5101077;28;20602;-81
2023/03/06 04:23:17;;;;;;;20.30;15.70;;;3.10;91.50;;;;;;5100147;28;20175;-81
2023/03/06 04:25:43;;;;;;;20.30;15.90;;;3.10;92.60;;;;;;5099966;28;20186;-81
2023/03/06 04:28:09;;;;;;;20.00;15.57;;;3.10;92.60;;;;;;5100673;28;20255;-83
2023/03/06 04:30:35;;;;;;;17.87;15.40;;;3.10;93.90;;;;;;5101393;28;20217;-82
2023/03/06 04:33:01;;;;;;;20.10;14.90;;;3.10;94.10;;;;;;5100144;28;20151;-82
2023/03/06 04:35:27;;;;;;;18.93;15.63;;;3.10;93.70;;;;;;5101451;28;20163;-82
2023/03/06 04:37:53;;;;;;;19.43;15.47;;;3.00;94.20;;;;;;5100191;28;20179;-83
2023/03/06 04:40:22;;;;;;;21.27;15.40;;;3.10;94.10;;;;;;5100769;28;20206;-82
2023/03/06 04:42:47;;;;;;;16.53;14.70;;;3.00;95.30;;;;;;5100854;28;20182;-81
2023/03/06 04:45:14;;;;;;;19.93;15.27;;;3.10;94.10;;;;;;5100596;28;20183;-83
2023/03/06 04:47:40;;;;;;;21.43;15.60;;;3.10;93.90;;;;;;5101060;28;20202;-82
2023/03/06 04:50:07;;;;;;;18.17;15.57;;;3.10;94.00;;;;;;5100862;28;20186;-83
2023/03/06 04:52:32;;;;;;;18.63;14.53;;;3.10;94.60;;;;;;5099988;28;20171;-81
2023/03/06 04:54:58;;;;;;;18.57;14.80;;;3.10;93.80;;;;;;5100328;28;20270;-82
2023/03/06 04:57:23;;;;;;;21.40;16.00;;;3.20;94.50;;;;;;5100172;28;20175;-83
2023/03/06 04:59:49;;;;;;;21.80;17.47;;;3.20;93.00;;;;;;5098862;28;20229;-83
2023/03/06 05:02:16;;;;;;;23.77;17.30;;;3.20;92.30;;;;;;5098701;28;20195;-81
2023/03/06 05:04:42;;;;;;;23.13;17.70;;;3.10;93.00;;;;;;5099519;28;20179;-83
2023/03/06 05:07:08;;;;;;;21.20;16.87;;;3.10;93.80;;;;;;5099006;28;20247;-83
2023/03/06 05:09:34;;;;;;;21.37;18.10;;;3.00;94.20;;;;;;5103472;28;20202;-82
2023/03/06 05:11:59;;;;;;;23.70;17.37;;;3.10;94.50;;;;;;5113513;28;20300;-79
2023/03/06 05:14:28;;;;;;;20.93;17.23;;;3.20;92.70;;;;;;5116219;28;20190;-84
2023/03/06 05:16:54;;;;;;;22.87;16.87;;;3.20;93.20;;;;;;5111125;28;20186;-82
2023/03/06 05:19:20;;;;;;;20.17;16.47;;;3.30;92.60;;;;;;5101185;28;20170;-82
2023/03/06 05:21:45;;;;;;;23.33;17.70;;;3.20;93.50;;;;;;5096060;28;20203;-83
2023/03/06 05:24:11;;;;;;;21.77;17.33;;;3.20;92.60;;;;;;5080693;28;20218;-83
2023/03/06 05:26:37;;;;;;;22.13;17.43;;;3.20;93.00;;;;;;5080324;28;20188;-81
2023/03/06 05:29:02;;;;;;;23.10;17.73;;;3.10;93.60;;;;;;5098419;28;20183;-82
2023/03/06 05:31:28;;;;;;;22.43;17.93;;;3.10;93.50;;;;;;5099680;28;20377;-81
2023/03/06 05:33:55;;;;;;;20.70;16.03;;;3.20;93.50;;;;;;5100343;28;20182;-81
2023/03/06 05:36:21;;;;;;;20.93;17.00;;;3.30;92.00;;;;;;5099707;28;20179;-82
2023/03/06 05:38:47;;;;;;;21.10;17.83;;;3.20;91.60;;;;;;5099065;28;20688;-82
2023/03/06 05:41:12;;;;;;;24.67;18.03;;;3.20;92.50;;;;;;5099623;28;20195;-83
2023/03/06 05:43:38;;;;;;;22.67;17.90;;;3.10;93.00;;;;;;5100089;28;20179;-82
2023/03/06 05:46:05;;;;;;;23.80;17.03;;;3.10;93.50;;;;;;5099524;28;20175;-83
2023/03/06 05:48:32;;;;;;;23.40;18.17;;;3.10;93.40;;;;;;5098360;28;20246;-84
2023/03/06 05:50:59;;;;;;;22.93;17.47;;;3.10;93.70;;;;;;5097018;28;20198;-81
2023/03/06 05:53:25;;;;;;;22.87;17.03;;;3.10;93.40;;;;;;5098338;28;20309;-82
2023/03/06 05:56:09;;;;;;;20.40;16.83;;;3.20;93.00;;;;;;5098753;28;20167;-81
2023/03/06 05:58:35;;;;;;;22.27;17.20;;;3.10;94.20;;;;;;5097291;28;20167;-82
2023/03/06 06:01:17;;;;;;;22.57;17.97;;;3.10;94.60;;;;;;5096863;28;20916;-81
2023/03/06 06:03:43;;;;;;;22.80;18.30;;;3.10;93.80;;;;;;5098410;28;20171;-82
2023/03/06 06:06:10;;;;;;;22.70;18.30;;;3.20;94.10;;;;;;5096641;28;20627;-83
2023/03/06 06:08:36;;;;;;;28.07;20.57;;;3.40;92.40;;;;;;5097676;28;20211;-81
2023/03/06 06:11:04;;;;;;;24.10;17.63;;;3.50;91.40;;;;;;5093764;28;20225;-82
2023/03/06 06:13:29;;;;;;;22.30;18.27;;;3.50;91.40;;;;;;5099946;28;20182;-81
2023/03/06 06:15:55;;;;;;;21.23;16.23;;;3.60;91.30;;;;;;5099333;28;20179;-82
2023/03/06 06:18:20;;;;;;;19.77;17.07;;;3.70;90.60;;;;;;5100568;28;20175;-83
2023/03/06 06:20:46;;;;;;;22.50;18.87;;;3.70;90.80;;;;;;5095135;28;20231;-80
2023/03/06 06:23:13;;;;;;;24.27;17.93;;;3.80;90.20;;;;;;5079262;28;20222;-82
2023/03/06 06:25:39;;;;;;;21.93;18.30;;;3.80;90.10;;;;;;5078914;28;20619;-82
2023/03/06 06:28:05;;;;;;;21.77;17.03;;;3.80;89.00;;;;;;5085134;28;20175;-82
2023/03/06 06:30:31;;;;;;;22.23;17.53;;;3.70;90.50;;;;;;5098631;28;20215;-82
2023/03/06 06:32:58;;;;;;;23.63;17.80;;;3.80;90.10;;;;;;5098823;28;20524;-82
2023/03/06 06:35:25;;;;;;;22.70;17.20;;;3.60;90.90;;;;;;5098992;28;20645;-81
2023/03/06 06:37:50;;;;;;;26.00;18.43;;;3.70;90.60;;;;;;5099385;28;20231;-83
2023/03/06 06:40:16;;;;;;;22.93;17.53;;;3.50;91.70;;;;;;5098896;28;20194;-82
2023/03/06 06:42:42;;;;;;;21.73;17.27;;;3.50;92.30;;;;;;5098605;28;20163;-83
2023/03/06 06:45:09;;;;;;;23.17;19.10;;;3.60;91.20;;;;;;5097830;28;20244;-81
2023/03/06 06:47:39;;;;;;;24.60;19.60;;;3.40;93.50;;;;;;5097715;28;20163;-81
2023/03/06 06:50:07;;;;;;;27.60;18.27;;;3.30;93.70;;;;;;5096120;28;20183;-80
2023/03/06 06:52:32;;;;;;;21.73;18.23;;;3.20;94.60;;;;;;5095609;28;20167;-81
2023/03/06 06:54:58;;;;;;;24.93;18.47;;;3.30;94.30;;;;;;5094313;28;20175;-83
2023/03/06 06:57:23;;;;;;;23.73;18.00;;;3.30;95.40;;;;;;5094540;28;20175;-82
2023/03/06 06:59:49;;;;;;;23.97;18.50;;;3.30;94.50;;;;;;5095193;28;20253;-83
2023/03/06 07:02:15;;;;;;;28.03;20.97;;;3.20;95.80;;;;;;5097101;28;20206;-83
2023/03/06 07:04:41;;;;;;;23.13;18.67;;;3.20;95.40;;;;;;5090035;28;20247;-82
2023/03/06 07:07:07;;;;;;;23.40;18.90;;;3.20;95.50;;;;;;5095470;28;20190;-81
2023/03/06 07:09:32;;;;;;;23.67;18.13;;;3.10;96.20;;;;;;5096170;28;20182;-82
2023/03/06 07:11:58;;;;;;;23.90;19.77;;;3.20;95.90;;;;;;5098150;28;20222;-81
2023/03/06 07:14:24;;;;;;;21.33;18.13;;;3.10;95.60;;;;;;5097190;28;20200;-80
2023/03/06 07:16:49;;;;;;;19.60;16.93;;;3.00;96.80;;;;;;5101343;28;20777;-83
2023/03/06 07:19:15;;;;;;;23.73;18.00;;;3.20;95.40;;;;;;5103839;28;20179;-81
2023/03/06 07:21:41;;;;;;;21.07;17.50;;;3.20;95.90;;;;;;5104274;28;20268;-81
2023/03/06 07:24:06;;;;;;;24.67;17.93;;;3.30;95.00;;;;;;5104669;28;20179;-81
2023/03/06 07:26:32;;;;;;;22.53;17.83;;;3.20;95.50;;;;;;5103819;28;20186;-81
2023/03/06 07:28:57;;;;;;;20.63;16.63;;;3.20;95.30;;;;;;5104600;28;20200;-82
2023/03/06 07:31:25;;;;;;;20.90;16.60;;;3.20;95.50;;;;;;5105766;28;20222;-82
2023/03/06 07:33:53;;;;;;;19.37;15.87;;;3.20;95.60;;;;;;5104614;28;20179;-83
2023/03/06 07:36:19;;;;;;;20.20;16.50;;;3.30;93.80;;;;;;5105917;28;20186;-83
2023/03/06 07:38:45;;;;;;;21.57;18.03;;;3.30;95.00;;;;;;5104766;28;20801;-82
2023/03/06 07:41:12;;;;;;;19.23;16.10;;;3.30;95.20;;;;;;5103438;28;20202;-83
2023/03/06 07:43:46;;;;;;;18.67;16.17;;;3.10;95.40;;;;;;5103377;28;20178;-83
2023/03/06 07:46:13;;;;;;;19.83;16.40;;;3.20;94.70;;;;;;5101582;28;20178;-82
2023/03/06 07:48:40;;;;;;;19.57;16.23;;;3.20;95.50;;;;;;5102682;28;20194;-83
2023/03/06 07:51:12;;;;;;;18.83;16.13;;;3.30;94.60;;;;;;5100754;28;20210;-82
2023/03/06 07:53:38;;;;;;;20.03;16.00;;;3.30;94.30;;;;;;5102751;28;20210;-83
2023/03/06 07:56:07;;;;;;;16.97;14.37;;;3.30;93.10;;;;;;5103708;28;20261;-83
2023/03/06 07:58:34;;;;;;;18.70;15.23;;;3.20;93.60;;;;;;5104260;28;20182;-82
2023/03/06 08:01:12;;;;;;;20.53;15.53;;;3.30;92.30;;;;;;5103769;28;20207;-81
2023/03/06 08:03:38;;;;;;;22.50;15.20;;;3.40;91.70;;;;;;5094624;28;20357;-83
2023/03/06 08:06:19;;;;;;;20.17;15.20;;;3.40;92.90;;;;;;5104221;28;20200;-82
2023/03/06 08:08:46;;;;;;;20.00;14.43;;;3.30;91.30;;;;;;5104815;28;20567;-80
2023/03/06 08:11:13;;;;;;;18.70;13.53;;;3.30;91.80;;;;;;5104745;28;20219;-82
2023/03/06 08:13:39;;;;;;;17.07;13.63;;;3.40;89.70;;;;;;5103871;28;20329;-82
2023/03/06 08:16:06;;;;;;;18.93;14.83;;;3.50;89.00;;;;;;5104591;28;20237;-80
2023/03/06 08:18:32;;;;;;;15.63;13.07;;;3.40;90.70;;;;;;5105421;28;20174;-81
2023/03/06 08:21:04;;;;;;;17.30;13.70;;;3.40;90.60;;;;;;5104932;28;20308;-82
2023/03/06 08:23:30;;;;;;;16.97;13.73;;;3.30;91.00;;;;;;5104293;28;20174;-83
2023/03/06 08:26:01;;;;;;;18.10;14.63;;;3.40;90.80;;;;;;5104391;28;20194;-83
2023/03/06 08:28:27;;;;;;;15.67;13.80;;;3.30;92.30;;;;;;5101354;28;20171;-82
2023/03/06 08:30:55;;;;;;;17.07;14.03;;;3.40;91.50;;;;;;5100919;28;20340;-82
2023/03/06 08:33:21;;;;;;;17.03;13.33;;;3.50;90.80;;;;;;5100964;28;20278;-82
2023/03/06 08:35:46;;;;;;;16.70;13.83;;;3.60;89.20;;;;;;5099578;28;20190;-82
2023/03/06 08:38:12;;;;;;;16.57;13.87;;;3.60;90.50;;;;;;5100084;28;20190;-82
2023/03/06 08:40:37;;;;;;;15.70;13.80;;;3.60;91.30;;;;;;5099487;28;20222;-82
2023/03/06 08:43:03;;;;;;;16.53;14.00;;;3.50;90.10;;;;;;5099415;28;20206;-83
2023/03/06 08:45:29;;;;;;;16.80;13.37;;;3.40;90.60;;;;;;5100550;28;20645;-82
2023/03/06 08:47:54;;;;;;;16.47;14.20;;;3.50;90.60;;;;;;5097399;28;20543;-82
2023/03/06 08:50:21;;;;;;;17.77;13.70;;;3.60;91.20;;;;;;5098570;28;20198;-84
2023/03/06 08:52:46;;;;;;;17.73;13.63;;;3.50;90.70;;;;;;5099369;28;20177;-82
2023/03/06 08:55:12;;;;;;;15.73;12.97;;;3.60;89.00;;;;;;5100860;28;20212;-82
2023/03/06 08:57:37;;;;;;;20.03;14.07;;;3.70;88.90;;;;;;5099772;28;20254;-83
2023/03/06 09:00:07;;;;;;;19.83;14.57;;;3.70;89.20;;;;;;5099756;28;20202;-81
2023/03/06 09:02:34;;;;;;;19.50;13.93;;;3.80;89.80;;;;;;5101062;28;20203;-81
2023/03/06 09:05:00;;;;;;;22.70;13.90;;;3.70;90.30;;;;;;5100412;28;20163;-80
2023/03/06 09:07:26;;;;;;;17.33;14.17;;;3.80;87.90;;;;;;5100053;28;20233;-81
2023/03/06 09:09:56;;;;;;;18.27;14.27;;;3.70;89.30;;;;;;5100236;28;20196;-83
2023/03/06 09:12:22;;;;;;;16.20;12.77;;;3.60;89.70;;;;;;5099762;28;20256;-83
2023/03/06 09:14:47;;;;;;;18.30;13.13;;;3.80;87.90;;;;;;5100581;28;20242;-81
2023/03/06 09:17:13;;;;;;;16.37;14.07;;;3.80;87.40;;;;;;5100379;28;20182;-83
2023/03/06 09:19:38;;;;;;;16.63;14.13;;;3.80;87.60;;;;;;5101956;28;20207;-82
2023/03/06 09:22:04;;;;;;;17.33;14.33;;;3.60;88.20;;;;;;5102574;28;20801;-82
2023/03/06 09:24:30;;;;;;;17.60;13.93;;;3.60;88.70;;;;;;5102123;28;20182;-83
2023/03/06 09:26:55;;;;;;;14.30;12.30;;;3.90;87.80;;;;;;5101151;28;20187;-83
2023/03/06 09:29:21;;;;;;;16.67;13.37;;;3.90;87.40;;;;;;5100334;28;20187;-81
2023/03/06 09:31:47;;;;;;;18.53;14.40;;;3.90;87.70;;;;;;5099271;28;20227;-82
2023/03/06 09:34:12;;;;;;;15.30;13.53;;;4.00;86.10;;;;;;5101423;28;20203;-82
2023/03/06 09:36:38;;;;;;;14.63;12.70;;;3.90;87.20;;;;;;5100683;28;20517;-82
2023/03/06 09:39:03;;;;;;;16.73;13.07;;;3.90;86.00;;;;;;5110115;28;20205;-83
2023/03/06 09:41:34;;;;;;;14.17;12.60;;;4.00;85.90;;;;;;5117108;28;20191;-84
2023/03/06 09:44:07;;;;;;;14.93;13.27;;;3.90;87.20;;;;;;5117605;28;20205;-84
2023/03/06 09:46:54;;;;;;;15.93;13.27;;;4.00;86.80;;;;;;5098619;28;20575;-82
2023/03/06 09:49:41;;;;;;;15.73;12.93;;;4.00;87.30;;;;;;5096399;28;20804;-83
2023/03/06 09:52:22;;;;;;;16.10;13.37;;;4.20;85.50;;;;;;5097696;28;20216;-84
2023/03/06 09:54:58;;;;;;;16.00;12.97;;;4.20;85.10;;;;;;5078026;28;20183;-82
2023/03/06 09:57:31;;;;;;;19.47;14.33;;;4.00;86.70;;;;;;5078774;28;20168;-81
2023/03/06 10:00:04;;;;;;;18.17;13.37;;;4.10;85.50;;;;;;5079759;28;20183;-81
2023/03/06 10:03:06;;;;;;;16.27;13.13;;;4.30;83.80;;;;;;5079033;28;20164;-81
2023/03/06 10:05:40;;;;;;;18.40;13.63;;;4.40;83.30;;;;;;5079675;28;20159;-82
2023/03/06 10:08:29;;;;;;;18.87;13.53;;;4.30;85.70;;;;;;5079412;28;20192;-82
2023/03/06 10:11:01;;;;;;;17.77;13.67;;;4.20;85.60;;;;;;5094233;28;20229;-83
2023/03/06 10:13:26;;;;;;;16.30;13.43;;;4.20;86.70;;;;;;5099202;28;20189;-82
2023/03/06 10:16:00;;;;;;;15.33;13.50;;;4.30;85.50;;;;;;5098689;28;20179;-83
2023/03/06 10:18:26;;;;;;;17.50;14.03;;;4.50;85.80;;;;;;5098819;28;20209;-81
2023/03/06 10:21:01;;;;;;;17.00;13.67;;;4.70;84.40;;;;;;5098626;28;20198;-81
2023/03/06 10:23:45;;;;;;;16.10;13.97;;;4.60;84.50;;;;;;5098779;28;20174;-83
2023/03/06 10:26:35;;;;;;;15.73;13.07;;;4.70;84.20;;;;;;5098587;28;20179;-82
2023/03/06 10:29:35;;;;;;;13.17;11.67;;;5.00;81.90;;;;;;5099275;28;20173;-82
2023/03/06 10:32:26;;;;;;;18.00;12.47;;;5.20;78.50;;;;;;5098091;28;20222;-83
2023/03/06 10:34:54;;;;;;;13.53;11.37;;;5.20;79.30;;;;;;5088200;28;20214;-85
2023/03/06 10:37:21;;;;;;;14.23;11.67;;;5.20;77.20;;;;;;5098364;28;20167;-83
2023/03/06 10:40:20;;;;;;;15.27;12.03;;;4.90;80.00;;;;;;5097353;28;20170;-82
2023/03/06 10:42:46;;;;;;;14.30;12.13;;;4.90;80.70;;;;;;5093950;28;20233;-80
2023/03/06 10:45:14;;;;;;;14.83;11.97;;;5.00;78.40;;;;;;5095819;28;20236;-83
2023/03/06 10:47:40;;;;;;;13.90;11.70;;;4.90;78.90;;;;;;5097123;28;20257;-82
2023/03/06 10:50:26;;;;;;;14.23;11.97;;;4.90;79.40;;;;;;5097923;28;20202;-83
2023/03/06 10:53:03;;;;;;;14.67;12.93;;;5.00;79.70;;;;;;5092096;28;20194;-82
2023/03/06 10:55:33;;;;;;;16.07;13.03;;;5.00;79.80;;;;;;5097731;28;20189;-83
2023/03/06 10:58:24;;;;;;;16.53;12.37;;;4.90;79.50;;;;;;5097692;28;20266;-83
2023/03/06 11:01:03;;;;;;;16.10;12.70;;;5.20;77.40;;;;;;5086796;28;20263;-83
2023/03/06 11:03:29;;;;;;;14.17;12.57;;;5.30;78.50;;;;;;5099279;28;20495;-83
2023/03/06 11:05:57;;;;;;;13.43;11.17;;;5.20;77.70;;;;;;5099781;28;20175;-82
2023/03/06 11:08:23;;;;;;;13.63;11.83;;;5.10;75.50;;;;;;5101467;28;20242;-82
2023/03/06 11:11:04;;;;;;;17.93;12.60;;;5.30;76.90;;;;;;5101666;28;20238;-81
2023/03/06 11:13:33;;;;;;;14.50;11.70;;;5.40;75.70;;;;;;5097895;28;20243;-83
2023/03/06 11:16:04;;;;;;;13.97;11.50;;;5.50;76.30;;;;;;5099014;28;20246;-82
2023/03/06 11:18:34;;;;;;;14.67;11.40;;;5.60;74.30;;;;;;5098288;28;20591;-82
2023/03/06 11:21:03;;;;;;;14.13;11.07;;;5.70;71.80;;;;;;5098573;28;20244;-84
2023/03/06 11:23:45;;;;;;;12.40;10.70;;;5.80;70.00;;;;;;5099319;28;20203;-82
2023/03/06 11:26:16;;;;;;;14.30;11.77;;;5.90;70.10;;;;;;5099393;28;20218;-84
2023/03/06 11:29:13;;;;;;;14.00;11.23;;;5.90;71.20;;;;;;5096830;28;20202;-80
2023/03/06 11:32:22;;;;;;;13.83;11.80;;;5.80;71.00;;;;;;5096483;28;20202;-82
2023/03/06 11:34:56;;;;;;;13.97;11.47;;;5.60;73.30;;;;;;5086139;28;20190;-81
2023/03/06 11:37:28;;;;;;;12.27;10.53;;;5.70;70.20;;;;;;5096843;28;20180;-81
2023/03/06 11:40:03;;;;;;;15.23;11.43;;;5.90;69.00;;;;;;5096831;28;20182;-83
2023/03/06 11:42:36;;;;;;;15.30;11.60;;;6.10;69.80;;;;;;5097207;28;20186;-84
2023/03/06 11:45:10;;;;;;;15.90;12.10;;;6.20;71.20;;;;;;5097932;28;20197;-84
2023/03/06 11:47:37;;;;;;;13.80;11.80;;;6.10;69.70;;;;;;5096199;28;20175;-81
2023/03/06 11:50:26;;;;;;;14.53;12.67;;;6.00;71.10;;;;;;5077633;28;20190;-80
2023/03/06 11:52:58;;;;;;;15.27;11.30;;;6.20;69.40;;;;;;5078182;28;20209;-82
2023/03/06 11:55:55;;;;;;;13.37;11.97;;;6.50;67.10;;;;;;5079526;28;20163;-83
2023/03/06 11:59:19;;;;;;;12.57;11.23;;;6.50;69.00;;;;;;5079925;28;20684;-80
2023/03/06 12:02:09;;;;;;;14.03;11.50;;;6.50;69.20;;;;;;4997406;28;20285;-82
2023/03/06 12:05:01;;;;;;;14.20;11.30;;;6.10;68.70;;;;;;5077020;28;20192;-82
2023/03/06 12:07:33;;;;;;;14.50;11.53;;;5.90;67.70;;;;;;5050381;28;20207;-82
2023/03/06 12:10:10;;;;;;;13.70;11.90;;;5.90;68.90;;;;;;5089031;28;20237;-83
2023/03/06 12:12:56;;;;;;;13.13;10.93;;;6.00;66.50;;;;;;5102680;28;20413;-83
2023/03/06 12:15:45;;;;;;;14.83;11.83;;;6.00;67.80;;;;;;5103666;28;20214;-81
2023/03/06 12:18:31;;;;;;;12.60;10.73;;;6.00;67.20;;;;;;5103078;28;20168;-83
2023/03/06 12:21:23;;;;;;;13.67;10.63;;;5.90;67.50;;;;;;5102586;28;20183;-80
2023/03/06 12:24:07;;;;;;;14.23;12.47;;;6.10;68.60;;;;;;5102527;28;20220;-84
2023/03/06 12:26:47;;;;;;;14.10;12.40;;;5.90;67.70;;;;;;5101490;28;20613;-83
2023/03/06 12:29:38;;;;;;;15.43;11.63;;;5.90;68.60;;;;;;5102025;28;20183;-84
2023/03/06 12:32:10;;;;;;;21.83;11.93;;;5.90;68.70;;;;;;5102184;28;20225;-83
2023/03/06 12:34:43;;;;;;;13.60;10.83;;;6.00;68.10;;;;;;5100791;28;20185;-82
2023/03/06 12:37:47;;;;;;;11.37;10.27;;;6.10;67.90;;;;;;5100978;28;20679;-82
2023/03/06 12:40:38;;;;;;;11.97;10.67;;;6.00;66.20;;;;;;5099899;28;20189;-82
2023/03/06 12:43:22;;;;;;;11.93;10.33;;;6.10;66.50;;;;;;5101727;28;20190;-83
2023/03/06 12:45:58;;;;;;;12.23;10.17;;;5.90;66.90;;;;;;5099428;28;20212;-83
2023/03/06 12:48:28;;;;;;;12.67;10.83;;;5.80;68.90;;;;;;5099888;28;20863;-82